sensor_id;sensor_type;location;lat;lon;timestamp;P1;durP1;ratioP1;P2;durP2;ratioP2
66175;SDS011;52977;44.816;20.538;2022-12-07T00:01:44;42.15;;;12.73;;
66175;SDS011;52977;44.816;20.538;2022-12-07T00:04:11;47.58;;;14.45;;
66175;SDS011;52977;44.816;20.538;2022-12-07T00:06:40;47.08;;;14.93;;
66175;SDS011;52977;44.816;20.538;2022-12-07T00:09:09;51.45;;;14.18;;
66175;SDS011;52977;44.816;20.538;2022-12-07T00:11:36;45.00;;;14.25;;
66175;SDS011;52977;44.816;20.538;2022-12-07T00:14:05;48.70;;;14.50;;
66175;SDS011;52977;44.816;20.538;2022-12-07T00:16:32;49.30;;;13.85;;
66175;SDS011;52977;44.816;20.538;2022-12-07T00:18:58;48.40;;;13.98;;
66175;SDS011;52977;44.816;20.538;2022-12-07T00:21:25;49.45;;;12.50;;
66175;SDS011;52977;44.816;20.538;2022-12-07T00:23:54;58.10;;;12.30;;
66175;SDS011;52977;44.816;20.538;2022-12-07T00:26:24;47.65;;;12.68;;
66175;SDS011;52977;44.816;20.538;2022-12-07T00:28:53;52.25;;;13.40;;
66175;SDS011;52977;44.816;20.538;2022-12-07T00:31:21;46.65;;;11.82;;
66175;SDS011;52977;44.816;20.538;2022-12-07T00:33:49;37.58;;;11.35;;
66175;SDS011;52977;44.816;20.538;2022-12-07T00:36:17;35.97;;;11.38;;
66175;SDS011;52977;44.816;20.538;2022-12-07T00:38:44;35.22;;;10.77;;
66175;SDS011;52977;44.816;20.538;2022-12-07T00:41:11;38.13;;;10.77;;
66175;SDS011;52977;44.816;20.538;2022-12-07T00:43:39;28.40;;;10.27;;
66175;SDS011;52977;44.816;20.538;2022-12-07T00:46:06;29.55;;;8.52;;
66175;SDS011;52977;44.816;20.538;2022-12-07T00:48:31;20.33;;;7.88;;
66175;SDS011;52977;44.816;20.538;2022-12-07T00:50:58;20.75;;;7.50;;
66175;SDS011;52977;44.816;20.538;2022-12-07T00:53:23;23.63;;;7.75;;
66175;SDS011;52977;44.816;20.538;2022-12-07T00:55:49;26.17;;;9.45;;
66175;SDS011;52977;44.816;20.538;2022-12-07T00:58:15;29.00;;;7.95;;
66175;SDS011;52977;44.816;20.538;2022-12-07T01:00:41;22.80;;;6.90;;
66175;SDS011;52977;44.816;20.538;2022-12-07T01:03:09;21.33;;;5.97;;
66175;SDS011;52977;44.816;20.538;2022-12-07T01:05:36;18.67;;;6.63;;
66175;SDS011;52977;44.816;20.538;2022-12-07T01:08:02;22.60;;;6.40;;
66175;SDS011;52977;44.816;20.538;2022-12-07T01:10:28;26.95;;;8.43;;
66175;SDS011;52977;44.816;20.538;2022-12-07T01:12:56;29.98;;;9.20;;
66175;SDS011;52977;44.816;20.538;2022-12-07T01:15:23;37.85;;;8.43;;
66175;SDS011;52977;44.816;20.538;2022-12-07T01:17:49;31.10;;;9.30;;
66175;SDS011;52977;44.816;20.538;2022-12-07T01:20:15;26.25;;;7.10;;
66175;SDS011;52977;44.816;20.538;2022-12-07T01:22:41;19.10;;;6.93;;
66175;SDS011;52977;44.816;20.538;2022-12-07T01:25:08;20.58;;;6.55;;
66175;SDS011;52977;44.816;20.538;2022-12-07T01:27:35;15.60;;;5.85;;
66175;SDS011;52977;44.816;20.538;2022-12-07T01:30:03;22.23;;;6.63;;
66175;SDS011;52977;44.816;20.538;2022-12-07T01:32:30;11.90;;;5.10;;
66175;SDS011;52977;44.816;20.538;2022-12-07T01:34:56;14.32;;;4.88;;
66175;SDS011;52977;44.816;20.538;2022-12-07T01:37:21;12.93;;;4.43;;
66175;SDS011;52977;44.816;20.538;2022-12-07T01:39:50;12.85;;;5.47;;
66175;SDS011;52977;44.816;20.538;2022-12-07T01:42:17;11.55;;;4.35;;
66175;SDS011;52977;44.816;20.538;2022-12-07T01:47:44;11.32;;;5.00;;
66175;SDS011;52977;44.816;20.538;2022-12-07T01:50:16;12.40;;;4.45;;
66175;SDS011;52977;44.816;20.538;2022-12-07T01:52:42;10.30;;;4.25;;
66175;SDS011;52977;44.816;20.538;2022-12-07T01:55:12;7.75;;;3.55;;
66175;SDS011;52977;44.816;20.538;2022-12-07T01:57:43;12.93;;;4.53;;
66175;SDS011;52977;44.816;20.538;2022-12-07T02:00:13;9.90;;;4.22;;
66175;SDS011;52977;44.816;20.538;2022-12-07T02:02:45;9.57;;;3.78;;
66175;SDS011;52977;44.816;20.538;2022-12-07T02:05:27;7.68;;;3.80;;
66175;SDS011;52977;44.816;20.538;2022-12-07T02:07:54;8.82;;;3.33;;
66175;SDS011;52977;44.816;20.538;2022-12-07T02:10:23;9.00;;;3.85;;
66175;SDS011;52977;44.816;20.538;2022-12-07T02:13:13;8.52;;;3.72;;
66175;SDS011;52977;44.816;20.538;2022-12-07T02:23:59;8.25;;;3.13;;
66175;SDS011;52977;44.816;20.538;2022-12-07T02:31:45;7.28;;;2.85;;
66175;SDS011;52977;44.816;20.538;2022-12-07T02:34:28;7.20;;;2.60;;
66175;SDS011;52977;44.816;20.538;2022-12-07T02:39:59;7.00;;;3.05;;
66175;SDS011;52977;44.816;20.538;2022-12-07T02:42:33;9.45;;;3.17;;
66175;SDS011;52977;44.816;20.538;2022-12-07T02:45:03;8.38;;;2.92;;
66175;SDS011;52977;44.816;20.538;2022-12-07T02:47:31;8.32;;;2.47;;
66175;SDS011;52977;44.816;20.538;2022-12-07T02:50:02;8.75;;;2.75;;
66175;SDS011;52977;44.816;20.538;2022-12-07T02:52:29;6.38;;;2.78;;
66175;SDS011;52977;44.816;20.538;2022-12-07T02:54:56;7.30;;;2.90;;
66175;SDS011;52977;44.816;20.538;2022-12-07T03:13:09;8.85;;;2.97;;
66175;SDS011;52977;44.816;20.538;2022-12-07T03:16:04;7.82;;;2.70;;
66175;SDS011;52977;44.816;20.538;2022-12-07T03:18:49;9.27;;;3.33;;
66175;SDS011;52977;44.816;20.538;2022-12-07T03:21:25;8.93;;;3.00;;
66175;SDS011;52977;44.816;20.538;2022-12-07T03:23:54;7.22;;;2.75;;
66175;SDS011;52977;44.816;20.538;2022-12-07T03:26:24;7.65;;;2.90;;
66175;SDS011;52977;44.816;20.538;2022-12-07T03:29:04;7.00;;;2.75;;
66175;SDS011;52977;44.816;20.538;2022-12-07T03:31:35;6.85;;;2.70;;
66175;SDS011;52977;44.816;20.538;2022-12-07T03:34:08;8.32;;;2.72;;
66175;SDS011;52977;44.816;20.538;2022-12-07T03:36:45;7.10;;;2.83;;
66175;SDS011;52977;44.816;20.538;2022-12-07T03:39:22;13.60;;;4.65;;
66175;SDS011;52977;44.816;20.538;2022-12-07T03:41:50;7.60;;;3.33;;
66175;SDS011;52977;44.816;20.538;2022-12-07T03:44:17;7.90;;;4.25;;
66175;SDS011;52977;44.816;20.538;2022-12-07T03:49:27;7.95;;;3.88;;
66175;SDS011;52977;44.816;20.538;2022-12-07T03:57:25;8.25;;;3.97;;
66175;SDS011;52977;44.816;20.538;2022-12-07T03:59:54;10.35;;;4.75;;
66175;SDS011;52977;44.816;20.538;2022-12-07T04:02:23;10.50;;;4.15;;
66175;SDS011;52977;44.816;20.538;2022-12-07T04:04:51;9.32;;;4.30;;
66175;SDS011;52977;44.816;20.538;2022-12-07T04:07:17;9.10;;;4.50;;
66175;SDS011;52977;44.816;20.538;2022-12-07T04:09:43;10.75;;;4.10;;
66175;SDS011;52977;44.816;20.538;2022-12-07T04:12:08;10.10;;;5.07;;
66175;SDS011;52977;44.816;20.538;2022-12-07T04:14:34;10.20;;;4.40;;
66175;SDS011;52977;44.816;20.538;2022-12-07T04:17:00;9.38;;;4.40;;
66175;SDS011;52977;44.816;20.538;2022-12-07T04:19:27;9.85;;;4.63;;
66175;SDS011;52977;44.816;20.538;2022-12-07T04:21:55;10.32;;;4.82;;
66175;SDS011;52977;44.816;20.538;2022-12-07T04:24:21;12.13;;;5.07;;
66175;SDS011;52977;44.816;20.538;2022-12-07T04:26:47;15.20;;;5.78;;
66175;SDS011;52977;44.816;20.538;2022-12-07T04:29:14;13.45;;;5.55;;
66175;SDS011;52977;44.816;20.538;2022-12-07T04:31:39;11.63;;;5.25;;
66175;SDS011;52977;44.816;20.538;2022-12-07T04:34:06;12.25;;;5.22;;
66175;SDS011;52977;44.816;20.538;2022-12-07T04:36:32;15.23;;;5.28;;
66175;SDS011;52977;44.816;20.538;2022-12-07T04:38:57;15.95;;;6.63;;
66175;SDS011;52977;44.816;20.538;2022-12-07T04:41:23;14.88;;;6.38;;
66175;SDS011;52977;44.816;20.538;2022-12-07T04:43:56;14.35;;;5.40;;
66175;SDS011;52977;44.816;20.538;2022-12-07T04:46:23;14.02;;;6.03;;
66175;SDS011;52977;44.816;20.538;2022-12-07T04:48:50;15.38;;;5.88;;
66175;SDS011;52977;44.816;20.538;2022-12-07T04:51:18;12.88;;;5.70;;
66175;SDS011;52977;44.816;20.538;2022-12-07T04:53:49;15.75;;;5.95;;
66175;SDS011;52977;44.816;20.538;2022-12-07T04:56:15;13.50;;;5.85;;
66175;SDS011;52977;44.816;20.538;2022-12-07T04:58:41;11.13;;;5.25;;
66175;SDS011;52977;44.816;20.538;2022-12-07T05:01:08;14.30;;;5.22;;
66175;SDS011;52977;44.816;20.538;2022-12-07T05:03:33;12.93;;;5.40;;
66175;SDS011;52977;44.816;20.538;2022-12-07T05:06:00;12.90;;;5.32;;
66175;SDS011;52977;44.816;20.538;2022-12-07T05:08:26;12.38;;;5.53;;
66175;SDS011;52977;44.816;20.538;2022-12-07T05:10:51;11.65;;;5.10;;
66175;SDS011;52977;44.816;20.538;2022-12-07T05:13:17;12.18;;;5.20;;
66175;SDS011;52977;44.816;20.538;2022-12-07T05:15:42;12.02;;;5.95;;
66175;SDS011;52977;44.816;20.538;2022-12-07T05:18:09;11.20;;;4.72;;
66175;SDS011;52977;44.816;20.538;2022-12-07T05:20:38;11.50;;;5.32;;
66175;SDS011;52977;44.816;20.538;2022-12-07T05:23:04;9.55;;;4.40;;
66175;SDS011;52977;44.816;20.538;2022-12-07T05:25:29;12.43;;;5.47;;
66175;SDS011;52977;44.816;20.538;2022-12-07T05:27:55;11.13;;;4.80;;
66175;SDS011;52977;44.816;20.538;2022-12-07T05:30:22;11.63;;;4.93;;
66175;SDS011;52977;44.816;20.538;2022-12-07T05:32:48;12.18;;;5.35;;
66175;SDS011;52977;44.816;20.538;2022-12-07T05:35:14;11.90;;;5.10;;
66175;SDS011;52977;44.816;20.538;2022-12-07T05:37:40;12.32;;;5.70;;
66175;SDS011;52977;44.816;20.538;2022-12-07T05:40:05;11.07;;;5.00;;
66175;SDS011;52977;44.816;20.538;2022-12-07T05:42:31;12.55;;;5.05;;
66175;SDS011;52977;44.816;20.538;2022-12-07T05:44:57;10.25;;;4.63;;
66175;SDS011;52977;44.816;20.538;2022-12-07T05:47:23;10.70;;;5.05;;
66175;SDS011;52977;44.816;20.538;2022-12-07T05:49:48;12.63;;;5.00;;
66175;SDS011;52977;44.816;20.538;2022-12-07T05:52:14;14.10;;;5.18;;
66175;SDS011;52977;44.816;20.538;2022-12-07T05:54:40;11.68;;;5.30;;
66175;SDS011;52977;44.816;20.538;2022-12-07T05:57:05;12.77;;;6.07;;
66175;SDS011;52977;44.816;20.538;2022-12-07T05:59:31;10.50;;;5.35;;
66175;SDS011;52977;44.816;20.538;2022-12-07T06:01:58;11.75;;;5.65;;
66175;SDS011;52977;44.816;20.538;2022-12-07T06:04:35;12.77;;;5.55;;
66175;SDS011;52977;44.816;20.538;2022-12-07T06:09:29;11.35;;;5.00;;
66175;SDS011;52977;44.816;20.538;2022-12-07T06:11:55;12.32;;;5.60;;
66175;SDS011;52977;44.816;20.538;2022-12-07T06:14:40;9.85;;;4.72;;
66175;SDS011;52977;44.816;20.538;2022-12-07T06:17:07;12.23;;;5.25;;
66175;SDS011;52977;44.816;20.538;2022-12-07T06:19:33;10.15;;;5.07;;
66175;SDS011;52977;44.816;20.538;2022-12-07T06:21:58;11.00;;;4.80;;
66175;SDS011;52977;44.816;20.538;2022-12-07T06:24:24;11.00;;;4.47;;
66175;SDS011;52977;44.816;20.538;2022-12-07T06:26:50;10.60;;;4.97;;
66175;SDS011;52977;44.816;20.538;2022-12-07T06:29:16;8.77;;;4.43;;
66175;SDS011;52977;44.816;20.538;2022-12-07T06:31:43;10.15;;;4.55;;
66175;SDS011;52977;44.816;20.538;2022-12-07T06:34:10;9.80;;;4.63;;
66175;SDS011;52977;44.816;20.538;2022-12-07T06:36:38;13.43;;;5.30;;
66175;SDS011;52977;44.816;20.538;2022-12-07T06:39:04;11.05;;;4.75;;
66175;SDS011;52977;44.816;20.538;2022-12-07T06:41:31;9.43;;;4.72;;
66175;SDS011;52977;44.816;20.538;2022-12-07T06:43:58;10.05;;;4.32;;
66175;SDS011;52977;44.816;20.538;2022-12-07T06:46:24;12.18;;;5.20;;
66175;SDS011;52977;44.816;20.538;2022-12-07T06:48:50;11.63;;;4.93;;
66175;SDS011;52977;44.816;20.538;2022-12-07T06:51:16;15.70;;;6.90;;
66175;SDS011;52977;44.816;20.538;2022-12-07T06:53:42;17.35;;;7.28;;
66175;SDS011;52977;44.816;20.538;2022-12-07T06:56:08;15.90;;;6.55;;
66175;SDS011;52977;44.816;20.538;2022-12-07T06:58:34;13.10;;;6.20;;
66175;SDS011;52977;44.816;20.538;2022-12-07T07:01:01;13.25;;;6.15;;
66175;SDS011;52977;44.816;20.538;2022-12-07T07:03:27;11.23;;;5.68;;
66175;SDS011;52977;44.816;20.538;2022-12-07T07:05:53;13.70;;;5.68;;
66175;SDS011;52977;44.816;20.538;2022-12-07T07:08:19;11.82;;;5.80;;
66175;SDS011;52977;44.816;20.538;2022-12-07T07:10:45;12.50;;;6.63;;
66175;SDS011;52977;44.816;20.538;2022-12-07T07:13:11;11.50;;;6.28;;
66175;SDS011;52977;44.816;20.538;2022-12-07T07:15:38;15.68;;;7.50;;
66175;SDS011;52977;44.816;20.538;2022-12-07T07:18:04;14.10;;;6.90;;
66175;SDS011;52977;44.816;20.538;2022-12-07T07:20:30;18.23;;;8.38;;
66175;SDS011;52977;44.816;20.538;2022-12-07T07:22:56;18.42;;;8.50;;
66175;SDS011;52977;44.816;20.538;2022-12-07T07:25:23;16.45;;;8.20;;
66175;SDS011;52977;44.816;20.538;2022-12-07T07:27:49;19.27;;;8.57;;
66175;SDS011;52977;44.816;20.538;2022-12-07T07:30:15;17.73;;;8.18;;
66175;SDS011;52977;44.816;20.538;2022-12-07T07:32:41;18.75;;;7.50;;
66175;SDS011;52977;44.816;20.538;2022-12-07T07:35:08;15.13;;;7.32;;
66175;SDS011;52977;44.816;20.538;2022-12-07T07:37:34;13.15;;;6.07;;
66175;SDS011;52977;44.816;20.538;2022-12-07T07:40:00;17.73;;;6.55;;
66175;SDS011;52977;44.816;20.538;2022-12-07T07:42:26;15.90;;;6.60;;
66175;SDS011;52977;44.816;20.538;2022-12-07T07:44:52;15.60;;;6.10;;
66175;SDS011;52977;44.816;20.538;2022-12-07T07:47:19;13.93;;;5.70;;
66175;SDS011;52977;44.816;20.538;2022-12-07T07:49:45;13.73;;;6.18;;
66175;SDS011;52977;44.816;20.538;2022-12-07T07:52:11;13.27;;;6.35;;
66175;SDS011;52977;44.816;20.538;2022-12-07T07:54:37;17.13;;;6.38;;
66175;SDS011;52977;44.816;20.538;2022-12-07T07:57:04;15.77;;;6.45;;
66175;SDS011;52977;44.816;20.538;2022-12-07T07:59:30;16.05;;;6.60;;
66175;SDS011;52977;44.816;20.538;2022-12-07T08:01:56;14.35;;;5.60;;
66175;SDS011;52977;44.816;20.538;2022-12-07T08:04:22;13.13;;;5.40;;
66175;SDS011;52977;44.816;20.538;2022-12-07T08:06:48;13.35;;;5.78;;
66175;SDS011;52977;44.816;20.538;2022-12-07T08:09:14;18.85;;;6.65;;
66175;SDS011;52977;44.816;20.538;2022-12-07T08:11:40;14.60;;;6.75;;
66175;SDS011;52977;44.816;20.538;2022-12-07T08:14:07;14.75;;;6.60;;
66175;SDS011;52977;44.816;20.538;2022-12-07T08:16:33;13.52;;;6.40;;
66175;SDS011;52977;44.816;20.538;2022-12-07T08:18:59;14.30;;;6.35;;
66175;SDS011;52977;44.816;20.538;2022-12-07T08:21:25;17.58;;;6.88;;
66175;SDS011;52977;44.816;20.538;2022-12-07T08:23:51;13.15;;;6.30;;
66175;SDS011;52977;44.816;20.538;2022-12-07T08:26:17;14.10;;;6.88;;
66175;SDS011;52977;44.816;20.538;2022-12-07T08:28:44;14.27;;;6.35;;
66175;SDS011;52977;44.816;20.538;2022-12-07T08:31:12;13.27;;;5.97;;
66175;SDS011;52977;44.816;20.538;2022-12-07T08:33:40;13.18;;;6.13;;
66175;SDS011;52977;44.816;20.538;2022-12-07T08:36:08;13.90;;;5.03;;
66175;SDS011;52977;44.816;20.538;2022-12-07T08:38:35;17.08;;;7.30;;
66175;SDS011;52977;44.816;20.538;2022-12-07T08:41:02;22.98;;;8.73;;
66175;SDS011;52977;44.816;20.538;2022-12-07T08:43:30;21.75;;;9.57;;
66175;SDS011;52977;44.816;20.538;2022-12-07T08:49:02;24.77;;;11.98;;
66175;SDS011;52977;44.816;20.538;2022-12-07T08:51:34;22.30;;;9.60;;
66175;SDS011;52977;44.816;20.538;2022-12-07T08:54:01;19.33;;;9.43;;
66175;SDS011;52977;44.816;20.538;2022-12-07T08:56:32;11.52;;;5.93;;
66175;SDS011;52977;44.816;20.538;2022-12-07T08:58:59;11.43;;;5.85;;
66175;SDS011;52977;44.816;20.538;2022-12-07T09:01:25;14.88;;;5.72;;
66175;SDS011;52977;44.816;20.538;2022-12-07T09:03:52;12.68;;;5.70;;
66175;SDS011;52977;44.816;20.538;2022-12-07T09:06:19;14.30;;;5.90;;
66175;SDS011;52977;44.816;20.538;2022-12-07T09:08:46;10.35;;;4.97;;
66175;SDS011;52977;44.816;20.538;2022-12-07T09:11:15;10.32;;;5.10;;
66175;SDS011;52977;44.816;20.538;2022-12-07T09:13:41;8.10;;;3.83;;
66175;SDS011;52977;44.816;20.538;2022-12-07T09:16:07;16.10;;;6.43;;
66175;SDS011;52977;44.816;20.538;2022-12-07T09:18:34;17.10;;;7.93;;
66175;SDS011;52977;44.816;20.538;2022-12-07T09:21:00;19.35;;;9.55;;
66175;SDS011;52977;44.816;20.538;2022-12-07T09:23:26;28.25;;;13.35;;
66175;SDS011;52977;44.816;20.538;2022-12-07T09:25:52;22.05;;;9.70;;
66175;SDS011;52977;44.816;20.538;2022-12-07T09:28:18;21.08;;;9.57;;
66175;SDS011;52977;44.816;20.538;2022-12-07T09:30:45;26.55;;;11.23;;
66175;SDS011;52977;44.816;20.538;2022-12-07T09:33:14;19.35;;;8.68;;
66175;SDS011;52977;44.816;20.538;2022-12-07T09:35:47;22.58;;;8.27;;
66175;SDS011;52977;44.816;20.538;2022-12-07T09:38:15;16.92;;;7.25;;
66175;SDS011;52977;44.816;20.538;2022-12-07T09:40:41;22.95;;;10.15;;
66175;SDS011;52977;44.816;20.538;2022-12-07T09:43:13;17.15;;;8.15;;
66175;SDS011;52977;44.816;20.538;2022-12-07T09:45:42;26.20;;;10.90;;
66175;SDS011;52977;44.816;20.538;2022-12-07T09:48:17;26.40;;;9.98;;
66175;SDS011;52977;44.816;20.538;2022-12-07T09:50:46;23.30;;;10.23;;
66175;SDS011;52977;44.816;20.538;2022-12-07T09:56:04;23.23;;;10.43;;
66175;SDS011;52977;44.816;20.538;2022-12-07T09:58:31;26.90;;;9.80;;
66175;SDS011;52977;44.816;20.538;2022-12-07T10:00:59;20.92;;;8.77;;
66175;SDS011;52977;44.816;20.538;2022-12-07T10:03:27;18.95;;;8.73;;
66175;SDS011;52977;44.816;20.538;2022-12-07T10:05:54;21.00;;;9.60;;
66175;SDS011;52977;44.816;20.538;2022-12-07T10:08:21;22.38;;;10.30;;
66175;SDS011;52977;44.816;20.538;2022-12-07T10:10:50;26.70;;;11.70;;
66175;SDS011;52977;44.816;20.538;2022-12-07T10:13:22;28.35;;;12.98;;
66175;SDS011;52977;44.816;20.538;2022-12-07T10:16:05;26.30;;;11.75;;
66175;SDS011;52977;44.816;20.538;2022-12-07T10:18:39;27.45;;;12.20;;
66175;SDS011;52977;44.816;20.538;2022-12-07T10:23:43;23.58;;;10.68;;
66175;SDS011;52977;44.816;20.538;2022-12-07T10:31:43;18.25;;;7.93;;
66175;SDS011;52977;44.816;20.538;2022-12-07T10:34:20;14.65;;;7.20;;
66175;SDS011;52977;44.816;20.538;2022-12-07T10:37:06;25.88;;;11.70;;
66175;SDS011;52977;44.816;20.538;2022-12-07T10:39:52;30.48;;;13.15;;
66175;SDS011;52977;44.816;20.538;2022-12-07T10:42:21;30.73;;;15.25;;
66175;SDS011;52977;44.816;20.538;2022-12-07T10:47:42;24.15;;;11.05;;
66175;SDS011;52977;44.816;20.538;2022-12-07T10:50:13;29.35;;;13.60;;
66175;SDS011;52977;44.816;20.538;2022-12-07T10:55:45;30.27;;;12.93;;
66175;SDS011;52977;44.816;20.538;2022-12-07T11:03:29;14.93;;;6.57;;
66175;SDS011;52977;44.816;20.538;2022-12-07T11:06:10;13.98;;;6.05;;
66175;SDS011;52977;44.816;20.538;2022-12-07T11:11:40;14.32;;;6.22;;
66175;SDS011;52977;44.816;20.538;2022-12-07T11:14:23;14.88;;;6.32;;
66175;SDS011;52977;44.816;20.538;2022-12-07T11:16:58;14.15;;;6.57;;
66175;SDS011;52977;44.816;20.538;2022-12-07T11:22:03;13.52;;;5.50;;
66175;SDS011;52977;44.816;20.538;2022-12-07T11:30:09;14.60;;;5.35;;
66175;SDS011;52977;44.816;20.538;2022-12-07T11:32:47;20.27;;;7.07;;
66175;SDS011;52977;44.816;20.538;2022-12-07T11:37:55;27.67;;;11.55;;
66175;SDS011;52977;44.816;20.538;2022-12-07T11:40:29;38.33;;;15.23;;
66175;SDS011;52977;44.816;20.538;2022-12-07T11:43:04;47.03;;;17.80;;
66175;SDS011;52977;44.816;20.538;2022-12-07T11:45:48;39.22;;;16.27;;
66175;SDS011;52977;44.816;20.538;2022-12-07T11:51:07;37.42;;;15.38;;
66175;SDS011;52977;44.816;20.538;2022-12-07T11:53:48;32.40;;;13.13;;
66175;SDS011;52977;44.816;20.538;2022-12-07T11:56:22;30.02;;;13.63;;
66175;SDS011;52977;44.816;20.538;2022-12-07T11:58:53;34.28;;;14.05;;
66175;SDS011;52977;44.816;20.538;2022-12-07T12:06:40;30.90;;;12.60;;
66175;SDS011;52977;44.816;20.538;2022-12-07T12:09:18;27.55;;;12.02;;
66175;SDS011;52977;44.816;20.538;2022-12-07T12:20:26;23.77;;;9.43;;
66175;SDS011;52977;44.816;20.538;2022-12-07T12:25:39;22.15;;;9.77;;
66175;SDS011;52977;44.816;20.538;2022-12-07T12:28:18;23.67;;;9.48;;
66175;SDS011;52977;44.816;20.538;2022-12-07T12:31:05;23.70;;;10.23;;
66175;SDS011;52977;44.816;20.538;2022-12-07T12:33:32;17.60;;;7.82;;
66175;SDS011;52977;44.816;20.538;2022-12-07T12:46:54;10.63;;;4.90;;
66175;SDS011;52977;44.816;20.538;2022-12-07T12:51:49;13.20;;;5.38;;
66175;SDS011;52977;44.816;20.538;2022-12-07T13:18:48;11.18;;;4.65;;
66175;SDS011;52977;44.816;20.538;2022-12-07T13:28:40;19.27;;;7.38;;
66175;SDS011;52977;44.816;20.538;2022-12-07T13:31:11;15.75;;;6.57;;
66175;SDS011;52977;44.816;20.538;2022-12-07T13:33:49;18.77;;;6.83;;
66175;SDS011;52977;44.816;20.538;2022-12-07T13:36:17;17.05;;;7.50;;
66175;SDS011;52977;44.816;20.538;2022-12-07T13:38:48;18.58;;;8.50;;
66175;SDS011;52977;44.816;20.538;2022-12-07T13:41:22;22.90;;;10.68;;
66175;SDS011;52977;44.816;20.538;2022-12-07T13:43:54;28.48;;;11.70;;
66175;SDS011;52977;44.816;20.538;2022-12-07T13:46:33;20.92;;;9.27;;
66175;SDS011;52977;44.816;20.538;2022-12-07T13:51:48;33.38;;;13.57;;
66175;SDS011;52977;44.816;20.538;2022-12-07T13:54:15;29.05;;;11.77;;
66175;SDS011;52977;44.816;20.538;2022-12-07T13:56:42;22.17;;;10.05;;
66175;SDS011;52977;44.816;20.538;2022-12-07T14:01:51;31.83;;;12.35;;
66175;SDS011;52977;44.816;20.538;2022-12-07T14:04:34;29.08;;;12.15;;
66175;SDS011;52977;44.816;20.538;2022-12-07T14:10:05;30.35;;;11.73;;
66175;SDS011;52977;44.816;20.538;2022-12-07T14:15:01;27.08;;;10.75;;
66175;SDS011;52977;44.816;20.538;2022-12-07T14:17:29;25.65;;;10.43;;
66175;SDS011;52977;44.816;20.538;2022-12-07T14:20:01;27.88;;;10.77;;
66175;SDS011;52977;44.816;20.538;2022-12-07T14:22:33;30.35;;;12.75;;
66175;SDS011;52977;44.816;20.538;2022-12-07T14:25:01;35.30;;;13.45;;
66175;SDS011;52977;44.816;20.538;2022-12-07T14:27:47;39.58;;;13.65;;
66175;SDS011;52977;44.816;20.538;2022-12-07T14:30:28;51.08;;;17.08;;
66175;SDS011;52977;44.816;20.538;2022-12-07T14:33:03;45.25;;;15.20;;
66175;SDS011;52977;44.816;20.538;2022-12-07T14:35:31;50.17;;;18.38;;
66175;SDS011;52977;44.816;20.538;2022-12-07T14:37:58;45.78;;;17.48;;
66175;SDS011;52977;44.816;20.538;2022-12-07T14:40:25;47.47;;;18.45;;
66175;SDS011;52977;44.816;20.538;2022-12-07T14:42:57;55.30;;;21.58;;
66175;SDS011;52977;44.816;20.538;2022-12-07T14:45:27;53.03;;;23.23;;
66175;SDS011;52977;44.816;20.538;2022-12-07T14:47:53;38.38;;;16.85;;
66175;SDS011;52977;44.816;20.538;2022-12-07T14:50:20;33.45;;;14.70;;
66175;SDS011;52977;44.816;20.538;2022-12-07T14:52:58;31.63;;;14.05;;
66175;SDS011;52977;44.816;20.538;2022-12-07T14:55:29;33.10;;;14.73;;
66175;SDS011;52977;44.816;20.538;2022-12-07T14:57:57;40.70;;;15.85;;
66175;SDS011;52977;44.816;20.538;2022-12-07T15:00:26;37.90;;;15.98;;
66175;SDS011;52977;44.816;20.538;2022-12-07T15:02:52;54.33;;;19.20;;
66175;SDS011;52977;44.816;20.538;2022-12-07T15:05:18;54.83;;;20.58;;
66175;SDS011;52977;44.816;20.538;2022-12-07T15:07:44;43.90;;;17.70;;
66175;SDS011;52977;44.816;20.538;2022-12-07T15:10:18;44.72;;;18.58;;
66175;SDS011;52977;44.816;20.538;2022-12-07T15:12:49;40.47;;;16.85;;
66175;SDS011;52977;44.816;20.538;2022-12-07T15:15:15;47.97;;;18.42;;
66175;SDS011;52977;44.816;20.538;2022-12-07T15:17:43;39.95;;;17.92;;
66175;SDS011;52977;44.816;20.538;2022-12-07T15:20:11;37.72;;;15.77;;
66175;SDS011;52977;44.816;20.538;2022-12-07T15:22:38;36.60;;;14.23;;
66175;SDS011;52977;44.816;20.538;2022-12-07T15:25:05;31.70;;;13.35;;
66175;SDS011;52977;44.816;20.538;2022-12-07T15:27:31;32.83;;;13.68;;
66175;SDS011;52977;44.816;20.538;2022-12-07T15:29:58;32.45;;;13.45;;
66175;SDS011;52977;44.816;20.538;2022-12-07T15:32:24;33.10;;;13.77;;
66175;SDS011;52977;44.816;20.538;2022-12-07T15:34:50;35.88;;;16.38;;
66175;SDS011;52977;44.816;20.538;2022-12-07T15:37:16;46.30;;;17.38;;
66175;SDS011;52977;44.816;20.538;2022-12-07T15:39:42;40.85;;;17.02;;
66175;SDS011;52977;44.816;20.538;2022-12-07T15:42:09;36.22;;;16.35;;
66175;SDS011;52977;44.816;20.538;2022-12-07T15:44:35;37.38;;;14.93;;
66175;SDS011;52977;44.816;20.538;2022-12-07T15:47:19;36.45;;;15.50;;
66175;SDS011;52977;44.816;20.538;2022-12-07T15:49:46;34.28;;;14.95;;
66175;SDS011;52977;44.816;20.538;2022-12-07T15:52:12;42.67;;;18.52;;
66175;SDS011;52977;44.816;20.538;2022-12-07T15:54:38;41.70;;;17.17;;
66175;SDS011;52977;44.816;20.538;2022-12-07T15:57:05;40.15;;;16.92;;
66175;SDS011;52977;44.816;20.538;2022-12-07T15:59:31;47.67;;;20.20;;
66175;SDS011;52977;44.816;20.538;2022-12-07T16:01:57;42.63;;;18.45;;
66175;SDS011;52977;44.816;20.538;2022-12-07T16:04:23;45.40;;;18.65;;
66175;SDS011;52977;44.816;20.538;2022-12-07T16:06:50;44.33;;;18.33;;
66175;SDS011;52977;44.816;20.538;2022-12-07T16:09:16;43.28;;;18.05;;
66175;SDS011;52977;44.816;20.538;2022-12-07T16:11:43;50.50;;;22.33;;
66175;SDS011;52977;44.816;20.538;2022-12-07T16:14:08;58.35;;;24.90;;
66175;SDS011;52977;44.816;20.538;2022-12-07T16:16:34;53.03;;;22.38;;
66175;SDS011;52977;44.816;20.538;2022-12-07T16:19:00;49.53;;;21.83;;
66175;SDS011;52977;44.816;20.538;2022-12-07T16:21:25;46.55;;;20.42;;
66175;SDS011;52977;44.816;20.538;2022-12-07T16:23:51;40.35;;;17.90;;
66175;SDS011;52977;44.816;20.538;2022-12-07T16:26:18;44.05;;;18.23;;
66175;SDS011;52977;44.816;20.538;2022-12-07T16:28:48;37.25;;;16.40;;
66175;SDS011;52977;44.816;20.538;2022-12-07T16:31:16;33.03;;;13.57;;
66175;SDS011;52977;44.816;20.538;2022-12-07T16:33:43;27.20;;;11.60;;
66175;SDS011;52977;44.816;20.538;2022-12-07T16:36:11;25.98;;;11.32;;
66175;SDS011;52977;44.816;20.538;2022-12-07T16:38:39;25.90;;;11.07;;
66175;SDS011;52977;44.816;20.538;2022-12-07T16:41:06;21.48;;;10.82;;
66175;SDS011;52977;44.816;20.538;2022-12-07T16:43:33;23.88;;;10.63;;
66175;SDS011;52977;44.816;20.538;2022-12-07T16:45:59;21.23;;;10.13;;
66175;SDS011;52977;44.816;20.538;2022-12-07T16:48:25;21.33;;;9.38;;
66175;SDS011;52977;44.816;20.538;2022-12-07T16:50:52;22.33;;;10.02;;
66175;SDS011;52977;44.816;20.538;2022-12-07T16:53:19;21.52;;;9.40;;
66175;SDS011;52977;44.816;20.538;2022-12-07T16:55:47;17.08;;;8.45;;
66175;SDS011;52977;44.816;20.538;2022-12-07T16:58:14;16.15;;;8.30;;
66175;SDS011;52977;44.816;20.538;2022-12-07T17:00:44;14.70;;;6.70;;
66175;SDS011;52977;44.816;20.538;2022-12-07T17:03:11;11.18;;;6.53;;
66175;SDS011;52977;44.816;20.538;2022-12-07T17:05:38;15.25;;;7.43;;
66175;SDS011;52977;44.816;20.538;2022-12-07T17:08:06;13.93;;;7.10;;